Sandweiler, Luxembourg
Current Conditions -  °F | °C
As of 2:20 AM on Tuesday 21 Oct 2014 (Local Time) from ELLX Reporting Station
Overcast Overcast  
Wind Chill: 50°   Ceiling: 400
Heat Index: 50°   Visibility: 2.5mi
Dew Point: 50°   Wind: 5mph
Humidity: 100%   Direction: 240°WSW
Pressure: 30"   Gusts: NA
Location:  49.61°N, 6.22°E
Report Text: ELLX 210020Z 24004KT 190V280 4000 OVC004 10/10 Q1016 NOSIG
Loading
Personal Weather Stations






























Interactive Weather Map
Tropical Storm Tracking
New forecast layout! Learn more

10-Day Weather Forecast

Advertisements
Track Severe Weather on mobile